Terminal Aerodrome Forecast
Issued by NWS

Home | Current Version | Previous Version | Text Only | Print | Product List | Glossary On
Versions: 1 2 3 4 5 6 7 8 9 10 11 12 13 14 15 16 17 18 19 20 21 22 23 24 25 26 27 28 29 30 31 32 33 34 35 36 37 38 39
267
FTUS41 KOKX 240833 AAA
TAFHPN
TAF AMD
KHPN 240833Z 2409/2506 04022G30KT 5SM -RA BR OVC016
     FM241200 03016G25KT 5SM RA BR OVC010
     FM242000 35013KT 5SM -RA BR OVC014
     FM250400 32013KT P6SM BKN045
      AMD NOT SKED=

USA.gov is the U.S. government's official web portal to all federal, state and local government web resources and services.